Time;durP1;ratioP1;P1;durP2;ratioP2;P2;SDS_P1;SDS_P2;PMS_P1;PMS_P2;Temp;Humidity;BMP_temperature;BMP_pressure;BME280_temperature;BME280_humidity;BME280_pressure;Samples;Min_cycle;Max_cycle;Signal;HPM_P1;HPM_P2
2023/06/28 00:01:14;;;;;;;;;12.00;8.75;;;;;24.32;33.29;101532.25;5061227;28;45356;-63
2023/06/28 00:03:39;;;;;;;;;8.75;8.00;;;;;24.29;32.91;101532.44;5062574;28;45338;-63
2023/06/28 00:06:05;;;;;;;;;15.25;12.00;;;;;24.26;33.46;101537.97;5060948;28;47139;-62
2023/06/28 00:08:30;;;;;;;;;12.25;8.00;;;;;24.26;33.38;101532.63;5062539;28;45305;-62
2023/06/28 00:10:55;;;;;;;;;15.25;14.25;;;;;24.23;33.46;101524.75;5060799;28;45255;-63
2023/06/28 00:13:21;;;;;;;;;19.50;16.25;;;;;24.19;33.57;101520.53;5061065;28;45509;-62
2023/06/28 00:15:46;;;;;;;;;20.75;19.00;;;;;24.17;33.39;101517.06;5062173;28;46330;-63
2023/06/28 00:18:12;;;;;;;;;22.50;14.25;;;;;24.16;33.47;101516.22;5061147;28;45317;-62
2023/06/28 00:20:40;;;;;;;;;26.75;24.00;;;;;24.13;33.35;101512.84;5062229;28;45304;-62
2023/06/28 00:23:06;;;;;;;;;24.75;23.75;;;;;24.12;33.63;101520.00;5062212;28;45440;-62
2023/06/28 00:25:32;;;;;;;;;20.75;15.75;;;;;24.10;33.54;101510.31;5065196;28;45591;-62
2023/06/28 00:27:57;;;;;;;;;23.75;20.50;;;;;24.07;33.44;101514.06;5081020;28;45579;-62
2023/06/28 00:30:22;;;;;;;;;17.25;14.75;;;;;24.04;34.03;101511.56;5082528;28;45769;-62
2023/06/28 00:32:48;;;;;;;;;20.75;18.00;;;;;23.99;33.81;101502.91;5082358;28;45633;-62
2023/06/28 00:35:13;;;;;;;;;21.25;14.75;;;;;23.98;33.44;101515.47;5080830;28;47230;-62
2023/06/28 00:37:39;;;;;;;;;18.00;13.75;;;;;23.97;33.66;101511.03;5082275;28;45250;-62
2023/06/28 00:40:06;;;;;;;;;15.00;13.75;;;;;23.96;33.63;101509.34;5082227;28;45272;-62
2023/06/28 00:42:31;;;;;;;;;12.50;11.50;;;;;23.93;33.76;101509.50;5081030;27;45322;-62
2023/06/28 00:44:56;;;;;;;;;18.25;15.50;;;;;23.93;34.03;101514.00;5081766;28;46200;-62
2023/06/28 00:47:23;;;;;;;;;12.75;12.75;;;;;23.89;33.68;101510.59;5071223;28;45199;-62
2023/06/28 00:49:50;;;;;;;;;12.50;11.50;;;;;23.88;33.71;101503.50;5061958;28;45224;-62
2023/06/28 00:52:16;;;;;;;;;13.00;12.00;;;;;23.85;34.04;101507.22;5061759;28;45276;-63
2023/06/28 00:54:41;;;;;;;;;9.75;9.75;;;;;23.82;34.04;101514.59;5061498;28;45344;-63
2023/06/28 00:57:08;;;;;;;;;11.75;10.00;;;;;23.80;34.04;101505.78;5061478;28;45383;-62
2023/06/28 00:59:34;;;;;;;;;8.00;7.75;;;;;23.79;34.08;101515.63;5061758;28;45188;-62
2023/06/28 01:02:01;;;;;;;;;10.75;9.25;;;;;23.77;33.96;101504.16;5061577;28;45468;-62
2023/06/28 01:04:26;;;;;;;;;11.75;9.75;;;;;23.74;34.50;101515.03;5060717;28;45355;-62
2023/06/28 01:06:54;;;;;;;;;11.50;7.75;;;;;23.69;34.06;101499.19;5060216;28;45244;-62
2023/06/28 01:09:21;;;;;;;;;5.75;5.75;;;;;23.69;33.98;101504.56;5060218;28;45391;-62
2023/06/28 01:11:51;;;;;;;;;8.00;8.00;;;;;23.68;34.22;101516.28;5061112;28;45434;-62
2023/06/28 01:14:18;;;;;;;;;6.00;5.25;;;;;23.66;34.10;101510.13;5059823;28;46771;-62
2023/06/28 01:16:54;;;;;;;;;8.75;7.50;;;;;23.60;34.14;101499.75;5061312;28;45517;-62
2023/06/28 01:19:25;;;;;;;;;10.50;10.50;;;;;23.60;34.07;101507.78;5068437;28;45267;-62
2023/06/28 01:22:00;;;;;;;;;13.50;10.75;;;;;23.58;34.32;101507.00;5080111;28;45442;-62
2023/06/28 01:24:26;;;;;;;;;19.25;17.25;;;;;23.56;34.52;101494.63;5081358;28;45889;-62
2023/06/28 01:26:52;;;;;;;;;25.00;19.50;;;;;23.52;34.46;101491.25;5078197;28;45180;-62
2023/06/28 01:29:24;;;;;;;;;30.25;24.50;;;;;23.53;34.09;101496.56;5080251;28;45307;-62
2023/06/28 01:31:51;;;;;;;;;25.25;20.75;;;;;23.51;34.36;101497.59;5081307;28;45444;-62
2023/06/28 01:34:17;;;;;;;;;27.00;25.75;;;;;23.49;34.19;101504.84;5081364;28;45279;-62
2023/06/28 01:36:43;;;;;;;;;19.50;18.50;;;;;23.48;34.29;101506.69;5081186;28;45208;-62
2023/06/28 01:39:10;;;;;;;;;22.25;20.25;;;;;23.48;34.43;101497.75;5081430;28;45484;-62
2023/06/28 01:41:36;;;;;;;;;20.25;16.75;;;;;23.47;34.45;101501.38;5080655;28;45343;-63
2023/06/28 01:44:01;;;;;;;;;21.50;14.00;;;;;23.46;34.53;101500.53;5081259;28;45366;-62
2023/06/28 01:46:30;;;;;;;;;21.00;20.75;;;;;23.44;34.82;101491.69;5079528;28;45395;-62
2023/06/28 01:48:56;;;;;;;;;14.25;12.00;;;;;23.44;34.55;101490.84;5079953;27;45237;-62
2023/06/28 01:51:21;;;;;;;;;20.75;18.50;;;;;23.42;34.82;101490.94;5080950;28;45244;-62
2023/06/28 01:53:46;;;;;;;;;19.25;14.00;;;;;23.39;34.50;101490.25;5080992;28;46297;-63
2023/06/28 01:56:12;;;;;;;;;17.00;14.75;;;;;23.39;34.61;101482.19;5080693;28;45527;-62
2023/06/28 01:58:37;;;;;;;;;13.25;12.75;;;;;23.33;34.42;101489.66;5081178;28;45752;-62
2023/06/28 02:01:02;;;;;;;;;8.00;8.00;;;;;23.34;34.58;101490.50;5080769;28;49349;-62
2023/06/28 02:03:28;;;;;;;;;9.00;6.00;;;;;23.31;34.37;101488.84;5080940;28;45540;-63
2023/06/28 02:05:53;;;;;;;;;7.50;5.75;;;;;23.31;34.43;101490.69;5080716;28;45346;-62
2023/06/28 02:08:19;;;;;;;;;4.75;3.50;;;;;23.29;34.90;101487.22;5080157;27;45442;-63
2023/06/28 02:10:45;;;;;;;;;4.00;4.00;;;;;23.25;34.36;101486.50;5079079;28;45510;-63
2023/06/28 02:13:10;;;;;;;;;5.25;4.50;;;;;23.25;34.61;101480.31;5080685;28;45352;-62
2023/06/28 02:15:35;;;;;;;;;5.00;4.50;;;;;23.23;34.33;101480.34;5079496;28;45319;-63
2023/06/28 02:18:01;;;;;;;;;7.50;4.00;;;;;23.20;34.43;101472.50;5081066;28;45771;-62
2023/06/28 02:20:26;;;;;;;;;7.50;4.75;;;;;23.18;34.65;101479.75;5079161;28;45486;-62
2023/06/28 02:22:52;;;;;;;;;3.50;3.50;;;;;23.17;34.60;101484.25;5080601;28;45324;-62
2023/06/28 02:25:17;;;;;;;;;5.25;4.00;;;;;23.14;34.77;101484.38;5077527;28;45345;-62
2023/06/28 02:27:43;;;;;;;;;5.00;4.25;;;;;23.13;34.74;101481.81;5080553;28;45321;-62
2023/06/28 02:30:08;;;;;;;;;8.50;5.00;;;;;23.11;35.08;101483.72;5080607;28;45513;-62
2023/06/28 02:32:34;;;;;;;;;5.00;3.00;;;;;23.11;34.53;101481.03;5080508;28;46242;-62
2023/06/28 02:34:59;;;;;;;;;6.25;4.25;;;;;23.08;34.57;101478.50;5079037;28;45252;-62
2023/06/28 02:37:25;;;;;;;;;7.50;4.00;;;;;23.05;34.65;101474.19;5080677;28;45475;-62
2023/06/28 02:39:50;;;;;;;;;4.00;4.00;;;;;23.02;34.89;101479.72;5080309;28;46330;-62
2023/06/28 02:42:15;;;;;;;;;5.50;5.25;;;;;22.98;34.73;101473.66;5079916;28;53985;-63
2023/06/28 02:44:41;;;;;;;;;5.25;3.50;;;;;22.98;34.76;101479.03;5080265;28;45232;-62
2023/06/28 02:47:06;;;;;;;;;4.00;4.00;;;;;22.97;34.81;101477.28;5071477;28;45458;-62
2023/06/28 02:49:31;;;;;;;;;5.00;4.00;;;;;22.94;34.87;101469.41;5060086;28;45236;-62
2023/06/28 02:51:57;;;;;;;;;3.75;3.25;;;;;22.88;34.90;101467.94;5060090;28;45296;-63
2023/06/28 02:54:22;;;;;;;;;5.00;4.00;;;;;22.92;34.87;101481.16;5060191;28;45182;-63
2023/06/28 02:56:47;;;;;;;;;5.75;4.50;;;;;22.89;34.65;101474.16;5059762;28;45225;-63
2023/06/28 02:59:13;;;;;;;;;5.25;3.50;;;;;22.85;35.11;101472.59;5059924;28;45216;-62
2023/06/28 03:01:38;;;;;;;;;4.75;3.25;;;;;22.84;35.28;101468.19;5058600;28;47056;-62
2023/06/28 03:04:03;;;;;;;;;4.00;4.00;;;;;22.82;35.06;101467.44;5059360;28;49363;-62
2023/06/28 03:06:30;;;;;;;;;7.50;6.50;;;;;22.82;34.97;101462.06;5060043;28;45333;-63
2023/06/28 03:08:55;;;;;;;;;4.00;4.00;;;;;22.80;35.15;101472.84;5059734;28;45312;-63
2023/06/28 03:11:20;;;;;;;;;5.25;4.50;;;;;22.77;34.89;101466.81;5059437;28;45255;-63
2023/06/28 03:13:46;;;;;;;;;6.00;6.00;;;;;22.75;35.29;101466.03;5058350;28;46107;-63
2023/06/28 03:16:11;;;;;;;;;8.50;7.25;;;;;22.76;34.99;101468.59;5058339;28;46869;-62
2023/06/28 03:18:36;;;;;;;;;9.00;6.25;;;;;22.75;35.30;101471.38;5069579;28;46430;-62
2023/06/28 03:21:02;;;;;;;;;9.00;9.00;;;;;22.72;35.34;101461.69;5059499;28;45975;-62
2023/06/28 03:23:27;;;;;;;;;9.00;8.50;;;;;22.70;35.62;101463.59;5058285;28;45945;-62
2023/06/28 03:25:53;;;;;;;;;10.50;10.50;;;;;22.67;35.23;101464.63;5067271;28;45467;-62
2023/06/28 03:28:18;;;;;;;;;14.00;13.75;;;;;22.67;35.44;101466.44;5079717;28;45556;-62
2023/06/28 03:30:44;;;;;;;;;10.50;9.00;;;;;22.67;35.01;101464.63;5083501;28;46216;-63
2023/06/28 03:33:09;;;;;;;;;15.50;12.50;;;;;22.65;35.44;101463.81;5083175;28;45192;-62
2023/06/28 03:35:34;;;;;;;;;18.25;13.25;;;;;22.64;35.25;101458.56;5083557;28;45310;-63
2023/06/28 03:38:00;;;;;;;;;14.50;13.75;;;;;22.64;35.62;101467.47;5081898;28;49871;-62
2023/06/28 03:40:25;;;;;;;;;9.75;9.25;;;;;22.62;35.68;101468.50;5081409;28;52827;-62
2023/06/28 03:42:52;;;;;;;;;9.50;9.00;;;;;22.62;35.48;101472.03;5082026;27;45275;-62
2023/06/28 03:45:18;;;;;;;;;11.75;11.25;;;;;22.59;35.18;101466.84;5082000;28;45395;-63
2023/06/28 03:47:43;;;;;;;;;17.25;13.50;;;;;22.60;35.24;101465.88;5068406;28;45510;-63
2023/06/28 03:50:09;;;;;;;;;13.50;11.75;;;;;22.59;35.57;101460.63;5061376;28;47187;-63
2023/06/28 03:52:35;;;;;;;;;13.75;11.75;;;;;22.59;35.56;101469.53;5062644;28;45349;-62
2023/06/28 03:55:01;;;;;;;;;9.75;8.25;;;;;22.57;35.57;101463.38;5062906;28;45475;-62
2023/06/28 03:57:27;;;;;;;;;13.00;11.75;;;;;22.55;35.63;101466.16;5062216;28;45277;-63
2023/06/28 03:59:52;;;;;;;;;11.50;11.50;;;;;22.52;35.63;101452.06;5062690;28;46087;-62
2023/06/28 04:02:17;;;;;;;;;13.50;11.25;;;;;22.49;35.58;101445.06;5076050;28;45396;-62
2023/06/28 04:04:43;;;;;;;;;19.00;14.00;;;;;22.54;35.71;101456.38;5068990;28;45347;-63
2023/06/28 04:07:08;;;;;;;;;11.75;10.75;;;;;22.53;35.48;101464.50;5082831;28;45385;-63
2023/06/28 04:09:33;;;;;;;;;11.25;9.50;;;;;22.51;35.79;101463.72;5082875;28;45379;-63
2023/06/28 04:11:59;;;;;;;;;16.50;14.00;;;;;22.53;36.04;101465.34;5081143;28;45438;-62
2023/06/28 04:14:24;;;;;;;;;11.25;11.25;;;;;22.53;35.82;101467.19;5082656;28;50337;-62
2023/06/28 04:16:53;;;;;;;;;11.50;9.75;;;;;22.52;35.56;101466.28;5082538;28;45554;-63
2023/06/28 04:19:19;;;;;;;;;14.50;11.50;;;;;22.50;36.05;101464.66;5082444;28;45989;-63
2023/06/28 04:21:44;;;;;;;;;11.50;11.00;;;;;22.50;35.73;101472.69;5082431;28;45394;-62
2023/06/28 04:24:10;;;;;;;;;14.00;12.50;;;;;22.46;35.98;101469.28;5082734;28;45356;-62
2023/06/28 04:26:35;;;;;;;;;13.75;12.25;;;;;22.47;35.89;101467.50;5078887;28;45536;-62
2023/06/28 04:29:01;;;;;;;;;17.00;12.25;;;;;22.48;36.00;101469.25;5082391;28;46271;-63
2023/06/28 04:31:27;;;;;;;;;12.75;12.50;;;;;22.47;35.82;101472.84;5082349;28;45291;-63
2023/06/28 04:33:55;;;;;;;;;12.25;12.25;;;;;22.45;36.05;101469.38;5081246;28;45320;-63
2023/06/28 04:36:21;;;;;;;;;11.25;10.50;;;;;22.44;35.61;101462.28;5082284;28;45249;-62
2023/06/28 04:38:52;;;;;;;;;14.00;9.75;;;;;22.43;36.11;101463.22;5080998;28;45425;-63
2023/06/28 04:41:25;;;;;;;;;10.00;10.00;;;;;22.43;36.12;101461.44;5076733;28;45383;-63
2023/06/28 04:43:56;;;;;;;;;11.75;8.00;;;;;22.43;36.39;101464.13;5060578;28;45382;-63
2023/06/28 04:46:22;;;;;;;;;11.50;10.00;;;;;22.43;36.31;101460.56;5065621;28;45238;-63
2023/06/28 04:48:48;;;;;;;;;8.00;8.00;;;;;22.41;35.78;101460.66;5061687;28;45241;-63
2023/06/28 04:51:14;;;;;;;;;17.25;12.25;;;;;22.38;35.98;101456.31;5061682;28;45291;-63
2023/06/28 04:53:39;;;;;;;;;12.25;11.00;;;;;22.41;36.28;101455.28;5061774;28;45375;-63
2023/06/28 04:56:05;;;;;;;;;12.75;11.00;;;;;22.38;36.12;101455.47;5061394;28;45443;-63
2023/06/28 04:58:32;;;;;;;;;8.25;8.25;;;;;22.42;36.50;101461.53;5060663;28;47143;-63
2023/06/28 05:00:58;;;;;;;;;6.75;5.00;;;;;22.40;36.48;101462.47;5063908;28;45415;-63
2023/06/28 05:03:26;;;;;;;;;19.75;18.25;;;;;22.39;36.45;101460.72;5061652;28;45376;-63
2023/06/28 05:05:54;;;;;;;;;13.00;11.00;;;;;22.37;36.04;101456.41;5072260;28;45443;-63
2023/06/28 05:08:19;;;;;;;;;13.75;11.00;;;;;22.39;36.54;101465.22;5070916;28;46258;-63
2023/06/28 05:10:45;;;;;;;;;11.50;7.25;;;;;22.37;35.95;101459.94;5071159;28;45795;-63
2023/06/28 05:13:10;;;;;;;;;9.00;9.00;;;;;22.36;36.16;101451.97;5071239;28;45401;-63
2023/06/28 05:15:36;;;;;;;;;9.25;5.50;;;;;22.38;36.03;101455.47;5064089;28;45307;-63
2023/06/28 05:18:01;;;;;;;;;9.25;9.00;;;;;22.37;36.58;101459.09;5060010;28;46980;-63
2023/06/28 05:20:28;;;;;;;;;9.50;8.50;;;;;22.37;36.46;101457.25;5061150;28;45323;-63
2023/06/28 05:23:12;;;;;;;;;9.75;7.50;;;;;22.40;36.18;101457.13;5061787;28;45281;-63
2023/06/28 05:25:42;;;;;;;;;6.25;5.25;;;;;22.39;36.29;101455.38;5065021;28;45401;-62
2023/06/28 05:28:08;;;;;;;;;7.50;7.00;;;;;22.40;36.68;101456.22;5063333;28;48649;-66
2023/06/28 05:30:34;;;;;;;;;7.00;6.25;;;;;22.41;36.62;101455.28;5081467;28;45250;-67
2023/06/28 05:33:02;;;;;;;;;5.25;5.25;;;;;22.43;36.31;101449.84;5081247;28;45276;-67
2023/06/28 05:35:29;;;;;;;;;6.00;6.00;;;;;22.43;36.24;101444.50;5080184;27;45285;-68
2023/06/28 05:37:54;;;;;;;;;6.75;5.75;;;;;22.42;36.55;101442.78;5081165;28;46072;-67
2023/06/28 05:40:20;;;;;;;;;5.75;5.00;;;;;22.45;36.58;101440.81;5080900;28;45211;-68
2023/06/28 05:42:45;;;;;;;;;6.50;5.00;;;;;22.46;36.30;101449.69;5097105;27;45247;-64
2023/06/28 05:45:10;;;;;;;;;8.75;7.75;;;;;22.45;36.60;101445.28;5081000;28;45238;-71
2023/06/28 05:47:36;;;;;;;;;6.75;5.75;;;;;22.44;36.20;101446.22;5066930;27;47735;-72
2023/06/28 05:50:01;;;;;;;;;7.25;6.00;;;;;22.47;36.47;101446.09;5060488;28;45227;-72
2023/06/28 05:52:26;;;;;;;;;5.25;5.00;;;;;22.46;36.49;101441.66;5060837;28;45484;-72
2023/06/28 05:54:52;;;;;;;;;6.50;5.00;;;;;22.50;36.55;101444.09;5060473;28;45402;-72
2023/06/28 05:57:18;;;;;;;;;77.50;64.75;;;;;22.49;36.18;101446.84;5068304;28;47982;-72
2023/06/28 05:59:44;;;;;;;;;8.00;6.75;;;;;22.54;36.17;101459.06;5060592;28;45263;-72
2023/06/28 06:02:09;;;;;;;;;9.25;5.25;;;;;22.53;36.29;101445.75;5059478;28;45586;-71
2023/06/28 06:04:34;;;;;;;;;4.50;4.50;;;;;22.58;36.43;101454.41;5060739;28;45479;-72
2023/06/28 06:07:00;;;;;;;;;9.00;4.25;;;;;22.60;36.56;101454.31;5058892;28;48197;-72
2023/06/28 06:09:26;;;;;;;;;5.00;4.00;;;;;22.60;36.56;101452.50;5058383;28;45450;-72
2023/06/28 06:11:51;;;;;;;;;7.00;4.00;;;;;22.60;36.30;101451.63;5058736;28;45457;-72
2023/06/28 06:14:16;;;;;;;;;4.50;4.25;;;;;22.58;36.75;101449.06;5059968;28;45303;-72
2023/06/28 06:16:42;;;;;;;;;4.75;4.75;;;;;22.62;36.56;101445.25;5068263;27;47865;-72
2023/06/28 06:19:07;;;;;;;;;5.00;4.25;;;;;22.64;36.85;101451.41;5084618;27;45317;-72
2023/06/28 06:21:32;;;;;;;;;5.75;4.75;;;;;22.64;36.35;101456.75;5081371;27;45459;-72
2023/06/28 06:23:59;;;;;;;;;5.75;5.75;;;;;22.63;36.44;101452.34;5077447;27;45496;-71
2023/06/28 06:26:25;;;;;;;;;4.25;4.00;;;;;22.64;36.63;101447.84;5074656;27;45394;-72
2023/06/28 06:28:50;;;;;;;;;4.00;3.50;;;;;22.63;36.62;101447.00;5080341;28;45162;-72
2023/06/28 06:31:15;;;;;;;;;4.00;4.00;;;;;22.62;36.50;101442.56;5080633;28;45278;-72
2023/06/28 06:33:41;;;;;;;;;5.25;5.00;;;;;22.64;36.33;101446.03;5076256;27;45272;-70
2023/06/28 06:36:06;;;;;;;;;7.25;4.00;;;;;22.69;36.37;101451.13;5066975;28;47133;-71
2023/06/28 06:38:31;;;;;;;;;3.75;3.25;;;;;22.69;36.38;101451.13;5060094;28;45230;-71
2023/06/28 06:40:57;;;;;;;;;4.00;4.00;;;;;22.69;36.75;101446.66;5059937;28;45156;-70
2023/06/28 06:43:22;;;;;;;;;4.50;4.50;;;;;22.75;36.80;101455.31;5058595;28;47132;-70
2023/06/28 06:45:47;;;;;;;;;5.50;4.00;;;;;22.78;36.62;101456.00;5061757;28;45232;-71
2023/06/28 06:48:13;;;;;;;;;6.50;5.00;;;;;22.77;36.32;101453.41;5062175;27;45271;-71
2023/06/28 06:50:38;;;;;;;;;6.50;4.25;;;;;22.76;36.54;101455.22;5060019;28;45398;-71
2023/06/28 06:53:03;;;;;;;;;5.75;4.25;;;;;22.83;36.81;101456.63;5059724;28;48385;-70
2023/06/28 06:55:29;;;;;;;;;5.00;4.00;;;;;22.83;36.59;101453.06;5058300;28;47129;-69
2023/06/28 06:57:54;;;;;;;;;4.25;4.00;;;;;22.85;36.62;101459.22;5059480;27;45779;-69
2023/06/28 07:00:20;;;;;;;;;5.50;3.75;;;;;22.91;36.32;101463.38;5069098;28;45615;-71
2023/06/28 07:02:45;;;;;;;;;5.25;3.75;;;;;22.92;36.81;101467.75;5056187;28;45519;-66
2023/06/28 07:05:11;;;;;;;;;5.25;5.25;;;;;22.91;36.50;101461.56;5077484;28;46426;-61
2023/06/28 07:07:36;;;;;;;;;4.25;4.25;;;;;22.95;36.91;101460.44;5069622;28;45446;-63
2023/06/28 07:10:01;;;;;;;;;4.00;4.00;;;;;23.00;36.58;101460.19;5070965;28;50192;-64
2023/06/28 07:12:27;;;;;;;;;6.50;5.00;;;;;22.94;36.74;101450.66;5083025;28;45264;-61
2023/06/28 07:14:52;;;;;;;;;4.00;3.00;;;;;23.01;36.47;101456.56;5079624;28;45618;-62
2023/06/28 07:17:17;;;;;;;;;7.00;4.25;;;;;23.02;36.91;101448.41;5082747;28;45484;-63
2023/06/28 07:19:42;;;;;;;;;4.50;3.25;;;;;23.03;36.78;101451.94;5070431;28;45520;-62
2023/06/28 07:22:08;;;;;;;;;4.00;3.00;;;;;23.09;36.91;101456.13;5068875;28;45323;-62
2023/06/28 07:24:33;;;;;;;;;5.00;4.25;;;;;23.15;36.86;101461.16;5082905;28;45452;-61
2023/06/28 07:26:58;;;;;;;;;6.00;5.00;;;;;23.19;37.08;101463.59;5068657;28;45429;-62
2023/06/28 07:29:24;;;;;;;;;3.50;3.50;;;;;23.23;36.82;101458.91;5083346;28;45256;-61
2023/06/28 07:31:50;;;;;;;;;4.75;4.25;;;;;23.26;36.54;101460.56;5080319;28;45334;-62
2023/06/28 07:34:15;;;;;;;;;6.25;5.25;;;;;23.30;37.09;101464.81;5082741;28;45325;-62
2023/06/28 07:36:41;;;;;;;;;10.00;6.50;;;;;23.33;36.70;101468.19;5083032;28;45203;-63
2023/06/28 07:39:09;;;;;;;;;7.25;7.25;;;;;23.36;36.79;101470.69;5078858;28;45227;-63
2023/06/28 07:41:34;;;;;;;;;8.25;6.25;;;;;23.41;36.96;101467.75;5073791;28;45414;-63
2023/06/28 07:44:00;;;;;;;;;5.00;5.00;;;;;23.43;36.81;101468.50;5081132;28;47209;-64
2023/06/28 07:46:25;;;;;;;;;6.75;6.00;;;;;23.49;37.10;101464.63;5072348;28;45400;-63
2023/06/28 07:48:51;;;;;;;;;5.75;4.75;;;;;23.52;36.84;101464.44;5067974;28;45438;-62
2023/06/28 07:51:16;;;;;;;;;5.75;5.50;;;;;23.58;36.93;101460.56;5082734;28;45416;-63
2023/06/28 07:53:42;;;;;;;;;7.00;6.00;;;;;23.57;37.26;101448.97;5082475;28;45935;-63
2023/06/28 07:56:08;;;;;;;;;7.50;4.25;;;;;23.61;37.19;101455.88;5082181;28;45461;-63
2023/06/28 07:58:36;;;;;;;;;6.50;5.75;;;;;23.61;36.96;101450.50;5072457;28;45377;-63
2023/06/28 08:01:02;;;;;;;;;5.25;5.25;;;;;23.66;36.89;101451.09;5079615;28;45396;-62
2023/06/28 08:03:27;;;;;;;;;8.50;7.75;;;;;23.70;37.41;101457.16;5082332;28;46148;-61
2023/06/28 08:05:52;;;;;;;;;9.50;4.25;;;;;23.70;37.02;101449.13;5077098;28;45650;-62
2023/06/28 08:08:18;;;;;;;;;5.25;5.25;;;;;23.74;36.97;101458.69;5075683;28;45358;-61
2023/06/28 08:10:43;;;;;;;;;5.50;5.25;;;;;23.76;37.28;101453.25;5081950;28;45446;-62
2023/06/28 08:13:08;;;;;;;;;5.75;5.00;;;;;23.77;37.37;101453.16;5082296;28;45575;-63
2023/06/28 08:15:36;;;;;;;;;6.00;6.00;;;;;23.80;37.43;101454.81;5082359;28;45252;-64
2023/06/28 08:18:02;;;;;;;;;7.00;6.00;;;;;23.84;37.18;101449.16;5082538;28;45469;-63
2023/06/28 08:20:30;;;;;;;;;4.25;2.75;;;;;23.85;37.34;101450.03;5080767;28;45438;-62
2023/06/28 08:22:55;;;;;;;;;4.00;4.00;;;;;23.88;37.26;101455.19;5082106;28;45412;-63
2023/06/28 08:25:21;;;;;;;;;5.25;3.00;;;;;23.93;37.11;101449.59;5081358;28;53700;-62
2023/06/28 08:27:46;;;;;;;;;7.00;5.75;;;;;23.96;37.12;101450.28;5080690;28;45272;-64
2023/06/28 08:30:12;;;;;;;;;5.00;5.00;;;;;24.00;37.05;101448.28;5067400;28;45896;-68
2023/06/28 08:32:37;;;;;;;;;6.75;5.00;;;;;24.03;37.35;101450.78;5061777;28;46555;-69
2023/06/28 08:35:03;;;;;;;;;4.75;4.75;;;;;24.05;37.32;101446.19;5078329;28;45260;-67
2023/06/28 08:37:30;;;;;;;;;6.25;6.00;;;;;24.08;36.99;101447.81;5073588;28;45358;-67
2023/06/28 08:39:55;;;;;;;;;6.00;6.00;;;;;24.10;37.64;101446.78;5088729;27;45597;-67
2023/06/28 08:42:21;;;;;;;;;5.75;5.00;;;;;24.11;37.26;101436.88;5074642;28;45507;-67
2023/06/28 08:44:51;;;;;;;;;6.25;6.00;;;;;24.14;37.41;101434.88;5067474;28;45470;-67
2023/06/28 08:47:16;;;;;;;;;9.50;7.25;;;;;24.17;37.29;101431.16;5076130;28;46496;-66
2023/06/28 08:49:42;;;;;;;;;5.50;5.25;;;;;24.16;37.61;101430.28;5081717;28;45425;-66
2023/06/28 08:52:08;;;;;;;;;9.25;6.25;;;;;24.22;37.32;101434.41;5074291;28;47272;-67
2023/06/28 08:54:35;;;;;;;;;7.75;7.00;;;;;24.22;37.76;101423.69;5070964;28;45217;-65
2023/06/28 08:57:01;;;;;;;;;9.00;6.00;;;;;24.26;37.35;101430.56;5081195;28;45528;-68
2023/06/28 08:59:28;;;;;;;;;6.25;6.25;;;;;24.29;37.60;101429.56;5063561;28;45538;-66
2023/06/28 09:01:55;;;;;;;;;7.75;6.00;;;;;24.32;37.30;101430.19;5061541;28;45457;-68
2023/06/28 09:04:28;;;;;;;;;7.75;7.75;;;;;24.33;37.60;101431.94;5084727;27;45469;-67
2023/06/28 09:06:55;;;;;;;;;7.25;5.50;;;;;24.35;37.55;101426.47;5078681;27;45513;-69
2023/06/28 09:09:21;;;;;;;;;8.25;6.25;;;;;24.40;37.47;101431.56;5059656;28;45907;-68
2023/06/28 09:11:47;;;;;;;;;9.75;9.00;;;;;24.42;37.49;101426.97;5060768;28;45496;-69
2023/06/28 09:14:12;;;;;;;;;10.50;9.75;;;;;24.47;37.35;101428.38;5079827;28;45303;-68
2023/06/28 09:16:38;;;;;;;;;10.50;8.00;;;;;24.49;37.66;101426.47;5071475;28;45342;-68
2023/06/28 09:19:04;;;;;;;;;12.75;8.00;;;;;24.50;37.33;101424.66;5078992;28;45496;-71
2023/06/28 09:21:30;;;;;;;;;8.50;7.50;;;;;24.56;37.23;101428.78;5079586;28;48196;-69
2023/06/28 09:23:55;;;;;;;;;6.00;6.00;;;;;24.61;37.44;101427.53;5081176;28;45508;-68
2023/06/28 09:26:28;;;;;;;;;10.25;8.75;;;;;24.65;37.63;101425.53;5078939;28;45509;-70
2023/06/28 09:28:58;;;;;;;;;9.00;8.75;;;;;24.67;37.16;101421.81;5081363;28;45247;-69
2023/06/28 09:31:23;;;;;;;;;12.50;10.00;;;;;24.72;37.32;101420.66;5081017;28;45362;-70
2023/06/28 09:33:53;;;;;;;;;8.50;8.50;;;;;24.77;37.05;101432.00;5081031;28;45442;-70
2023/06/28 09:36:18;;;;;;;;;11.25;9.00;;;;;24.80;37.24;101423.72;5080019;27;45335;-69
2023/06/28 09:38:44;;;;;;;;;10.00;7.00;;;;;24.86;37.60;101422.47;5076347;28;45179;-69
2023/06/28 09:41:10;;;;;;;;;7.75;7.75;;;;;24.90;37.24;101424.00;5061603;28;45937;-69
2023/06/28 09:43:36;;;;;;;;;5.75;5.75;;;;;24.93;37.39;101415.72;5079485;28;45467;-70
2023/06/28 09:46:13;;;;;;;;;12.00;9.00;;;;;24.95;37.24;101409.28;5077613;27;45418;-68
2023/06/28 09:48:42;;;;;;;;;10.25;9.00;;;;;24.99;37.21;101407.25;5069397;28;45490;-69
2023/06/28 09:51:08;;;;;;;;;11.00;10.50;;;;;25.03;37.38;101410.63;5080465;28;45260;-70
2023/06/28 09:53:34;;;;;;;;;8.25;8.25;;;;;25.03;37.07;101402.56;5078135;28;45489;-70
2023/06/28 09:56:00;;;;;;;;;10.00;8.00;;;;;25.05;37.06;101396.13;5080482;28;45425;-67
2023/06/28 09:58:27;;;;;;;;;8.00;7.75;;;;;25.12;37.25;101402.81;5070230;28;45502;-69
2023/06/28 10:00:53;;;;;;;;;9.25;9.25;;;;;25.15;37.50;101391.00;5061564;28;45544;-68
2023/06/28 10:03:23;;;;;;;;;8.25;8.25;;;;;25.20;37.46;101388.88;5071598;28;45429;-67
2023/06/28 10:05:52;;;;;;;;;9.50;9.50;;;;;25.21;36.97;101382.53;5067920;28;45481;-68
2023/06/28 10:08:18;;;;;;;;;10.75;9.00;;;;;25.28;37.09;101391.03;5089475;27;46150;-67
2023/06/28 10:10:44;;;;;;;;;11.50;9.75;;;;;25.30;36.89;101387.28;5066971;27;45656;-68
2023/06/28 10:13:13;;;;;;;;;12.75;10.50;;;;;25.37;37.42;101382.41;5060305;28;45534;-67
2023/06/28 10:15:58;;;;;;;;;10.75;10.25;;;;;25.42;37.44;101377.59;5062936;28;45237;-61
2023/06/28 10:18:24;;;;;;;;;11.50;8.25;;;;;25.45;36.85;101369.31;5067975;28;45295;-65
2023/06/28 10:20:50;;;;;;;;;11.25;9.50;;;;;25.55;36.94;101377.63;5059802;28;45530;-66
2023/06/28 10:23:17;;;;;;;;;9.75;8.50;;;;;25.62;37.11;101375.38;5073708;28;45374;-66
2023/06/28 10:25:45;;;;;;;;;11.75;10.50;;;;;25.68;37.51;101368.72;5079252;28;45461;-71
2023/06/28 10:28:12;;;;;;;;;11.75;10.75;;;;;25.77;37.33;101373.47;5059727;28;45544;-65
2023/06/28 10:30:42;;;;;;;;;11.75;10.75;;;;;25.88;37.28;101373.56;5067777;28;46206;-71
2023/06/28 10:33:09;;;;;;;;;11.75;10.00;;;;;25.96;37.50;101368.53;5078628;28;45508;-75
2023/06/28 10:35:35;;;;;;;;;11.50;10.50;;;;;26.04;37.21;101367.16;5079087;28;45410;-71
2023/06/28 10:38:01;;;;;;;;;12.25;11.25;;;;;26.19;37.30;101374.16;5078818;28;45244;-71
2023/06/28 10:40:27;;;;;;;;;11.00;10.50;;;;;26.30;36.52;101377.94;5078357;28;46994;-70
2023/06/28 10:42:53;;;;;;;;;11.50;11.50;;;;;26.46;37.35;101369.63;5078198;28;45465;-69
2023/06/28 10:45:37;;;;;;;;;14.50;12.50;;;;;26.63;37.42;101371.09;5059864;28;45319;-67
2023/06/28 10:48:04;;;;;;;;;15.00;11.25;;;;;26.76;37.98;101363.88;5073659;28;45524;-64
2023/06/28 10:50:40;;;;;;;;;18.25;15.25;;;;;26.97;38.74;101360.56;5058202;28;46465;-65
2023/06/28 10:53:06;;;;;;;;;12.75;11.00;;;;;27.22;38.17;101363.16;5078832;27;45554;-67
2023/06/28 10:55:33;;;;;;;;;16.00;13.00;;;;;27.45;38.74;101357.03;5066276;28;45576;-65
2023/06/28 10:58:06;;;;;;;;;12.75;12.00;;;;;27.74;38.24;101366.44;5060953;28;45432;-73
2023/06/28 11:00:38;;;;;;;;;12.50;11.75;;;;;28.01;38.34;101369.81;5071182;28;45716;-67
2023/06/28 11:03:05;;;;;;;;;15.00;13.75;;;;;28.22;38.34;101365.44;5065868;28;45374;-66
2023/06/28 11:05:53;;;;;;;;;10.75;9.50;;;;;28.46;38.50;101359.03;5070152;28;45469;-66
2023/06/28 11:08:20;;;;;;;;;14.50;11.75;;;;;28.66;38.21;101354.72;5067434;28;45442;-66
2023/06/28 11:10:48;;;;;;;;;14.50;11.00;;;;;28.86;38.17;101350.41;5063680;28;46164;-66
2023/06/28 11:13:31;;;;;;;;;14.25;12.00;;;;;29.06;37.76;101342.50;5059529;28;45342;-67
2023/06/28 11:16:06;;;;;;;;;14.00;13.00;;;;;29.27;38.02;101353.38;5058326;28;45332;-63